Terminal Aerodrome Forecast
Issued by NWS Charleston, WV

Current Version | Previous Version | Graphics & Text | Print | Product List | Glossary On
Versions: 1 2 3 4 5 6 7 8 9 10 11 12 13 14 15 16 17 18 19 20 21 22 23 24 25 26 27
649
FTUS41 KRLX 210547
TAFCRW
TAF
KCRW 210547Z 2106/2206 00000KT P6SM BKN050
     FM210700 00000KT 4SM BR SCT050 BKN250
     FM210900 00000KT 2SM BR SCT001 BKN250
     FM211300 15003KT P6SM SCT035 BKN250
     FM211600 19005KT P6SM BKN040
     FM220000 17002KT P6SM BKN070=

USA.gov is the U.S. government's official web portal to all federal, state and local government web resources and services.